National Weather Service Raw Text Product

Displaying AFOS PIL: TAFOTM Received: 2018-06-14 11:27 UTC


334 
FTUS43 KDMX 141127
TAFOTM
TAF
KOTM 141127Z 1412/1512 14009KT P6SM VCSH BKN080
      TEMPO 1413/1415 5SM TSRA BR BKN035CB
     FM141700 14011KT P6SM BKN120
     FM150200 16008KT P6SM FEW250=